Time;durP1;ratioP1;P1;durP2;ratioP2;P2;SDS_P1;SDS_P2;PMS_P1;PMS_P2;Temp;Humidity;BMP_temperature;BMP_pressure;BME280_temperature;BME280_humidity;BME280_pressure;Samples;Min_cycle;Max_cycle;Signal;HPM_P1;HPM_P2
2022/01/07 00:00:21;;;;;;;17.52;5.72;;;2.90;99.90;;;;;;5114398;27;20429;-80
2022/01/07 00:02:49;;;;;;;16.50;5.43;;;3.00;99.90;;;;;;5098554;27;20066;-80
2022/01/07 00:05:15;;;;;;;15.43;5.00;;;3.00;99.90;;;;;;5099334;27;20407;-80
2022/01/07 00:07:41;;;;;;;;;;;3.00;99.90;;;;;;5115316;27;20129;-82
2022/01/07 00:10:09;;;;;;;17.13;5.50;;;3.10;99.90;;;;;;5098005;27;20439;-79
2022/01/07 00:12:35;;;;;;;16.45;5.97;;;3.00;99.90;;;;;;5114620;27;20483;-79
2022/01/07 00:15:02;;;;;;;17.40;5.18;;;3.00;99.90;;;;;;5132000;27;20054;-80
2022/01/07 00:17:27;;;;;;;15.88;5.18;;;3.00;99.90;;;;;;5113905;27;20039;-80
2022/01/07 00:19:53;;;;;;;13.25;4.28;;;3.10;99.90;;;;;;5115148;27;20409;-80
2022/01/07 00:22:20;;;;;;;17.50;4.75;;;3.10;99.90;;;;;;5115224;27;20051;-80
2022/01/07 00:24:45;;;;;;;;;;;3.10;99.90;;;;;;5125171;27;20501;-80
2022/01/07 00:27:11;;;;;;;19.83;4.80;;;3.10;99.90;;;;;;5117397;27;19920;-80
2022/01/07 00:29:36;;;;;;;17.90;5.10;;;3.10;99.90;;;;;;5128971;27;20495;-80
2022/01/07 00:32:02;;;;;;;19.15;5.30;;;3.10;99.90;;;;;;5121035;27;20054;-80
2022/01/07 00:34:28;;;;;;;15.80;5.35;;;3.10;99.90;;;;;;5117770;27;20074;-80
2022/01/07 00:36:54;;;;;;;14.00;4.22;;;3.20;99.90;;;;;;5117903;27;20154;-80
2022/01/07 00:39:20;;;;;;;18.08;4.45;;;3.10;99.90;;;;;;5117356;27;20065;-80
2022/01/07 00:41:46;;;;;;;12.75;4.50;;;3.30;99.90;;;;;;5117392;27;20245;-80
2022/01/07 00:44:11;;;;;;;12.45;4.10;;;3.00;99.90;;;;;;5118803;27;20494;-80
2022/01/07 00:46:37;;;;;;;13.38;4.40;;;3.00;99.90;;;;;;5096357;27;20091;-80
2022/01/07 00:49:03;;;;;;;11.88;4.07;;;3.00;99.90;;;;;;5118717;27;20125;-79
2022/01/07 00:51:29;;;;;;;13.45;4.90;;;3.20;99.90;;;;;;5100267;27;20034;-80
2022/01/07 00:53:54;;;;;;;13.45;4.57;;;3.10;99.90;;;;;;5134609;27;20045;-81
2022/01/07 00:56:20;;;;;;;16.98;5.18;;;2.90;99.90;;;;;;5135021;27;20043;-80
2022/01/07 00:58:46;;;;;;;16.17;5.53;;;2.80;99.90;;;;;;5115429;27;20087;-80
2022/01/07 01:01:11;;;;;;;15.68;4.05;;;2.80;99.90;;;;;;5134091;27;20065;-80
2022/01/07 01:03:37;;;;;;;16.63;4.65;;;3.30;99.90;;;;;;5134309;27;20086;-80
2022/01/07 01:06:03;;;;;;;15.77;4.20;;;2.80;99.90;;;;;;5134835;27;20039;-80
2022/01/07 01:08:29;;;;;;;14.82;4.68;;;2.80;99.90;;;;;;5134095;27;20046;-82
2022/01/07 01:10:55;;;;;;;16.48;4.80;;;2.80;99.90;;;;;;5134497;27;20054;-80
2022/01/07 01:13:21;;;;;;;11.80;4.75;;;2.80;99.90;;;;;;5133866;27;20384;-80
2022/01/07 01:15:48;;;;;;;15.30;5.28;;;2.70;99.90;;;;;;5115809;27;20133;-80
2022/01/07 01:18:14;;;;;;;14.63;4.80;;;2.70;99.90;;;;;;5134824;27;20038;-81
2022/01/07 01:20:40;;;;;;;14.02;4.85;;;2.70;99.90;;;;;;5134245;27;20478;-80
2022/01/07 01:23:06;;;;;;;19.10;5.43;;;2.70;99.90;;;;;;5134667;27;20039;-79
2022/01/07 01:25:32;;;;;;;12.13;4.68;;;3.60;99.90;;;;;;5133142;27;20054;-80
2022/01/07 01:27:58;;;;;;;17.15;4.43;;;2.60;99.90;;;;;;5134045;27;20042;-80
2022/01/07 01:30:27;;;;;;;;;;;2.50;99.90;;;;;;5116885;27;20126;-79
2022/01/07 01:32:53;;;;;;;14.30;5.70;;;2.50;99.90;;;;;;5126083;27;19968;-79
2022/01/07 01:35:19;;;;;;;14.65;5.38;;;2.60;99.90;;;;;;5112621;27;20134;-80
2022/01/07 01:37:47;;;;;;;16.88;5.25;;;2.40;99.90;;;;;;5130160;27;20049;-79
2022/01/07 01:40:14;;;;;;;13.55;4.95;;;2.40;99.90;;;;;;5130745;27;20039;-81
2022/01/07 01:42:39;;;;;;;19.85;5.80;;;2.30;99.90;;;;;;5130191;27;20383;-80
2022/01/07 01:45:07;;;;;;;14.77;5.38;;;2.30;99.90;;;;;;5122321;27;20061;-80
2022/01/07 01:47:33;;;;;;;18.45;5.88;;;2.30;99.90;;;;;;5090826;28;20047;-80
2022/01/07 01:49:59;;;;;;;15.25;5.20;;;2.30;99.90;;;;;;5089980;28;20054;-79
2022/01/07 01:52:24;;;;;;;17.75;6.18;;;2.60;99.90;;;;;;5130830;28;20065;-80
2022/01/07 01:54:50;;;;;;;16.10;6.07;;;2.20;99.90;;;;;;5105295;27;20105;-80
2022/01/07 01:57:16;;;;;;;16.95;5.90;;;2.20;99.90;;;;;;5089772;28;20044;-80
2022/01/07 01:59:41;;;;;;;18.15;6.25;;;2.20;99.90;;;;;;5071253;28;20050;-80
2022/01/07 02:02:07;;;;;;;23.77;7.40;;;2.20;99.90;;;;;;5089871;28;20040;-80
2022/01/07 02:04:33;;;;;;;20.90;6.65;;;2.20;99.90;;;;;;5091499;28;20044;-82
2022/01/07 02:06:59;;;;;;;19.77;6.13;;;2.20;99.90;;;;;;5089813;28;20040;-81
2022/01/07 02:09:34;;;;;;;17.75;6.00;;;2.20;99.90;;;;;;5095712;28;20047;-79
2022/01/07 02:11:59;;;;;;;20.83;6.45;;;2.10;99.90;;;;;;5130230;28;20074;-80
2022/01/07 02:14:25;;;;;;;18.63;6.88;;;2.20;99.90;;;;;;5126101;28;20086;-80
2022/01/07 02:16:51;;;;;;;25.90;7.15;;;2.20;99.90;;;;;;5099801;28;20082;-80
2022/01/07 02:19:17;;;;;;;20.63;7.47;;;2.10;99.90;;;;;;5089539;28;20044;-79
2022/01/07 02:21:42;;;;;;;23.23;8.30;;;2.10;99.90;;;;;;5089064;28;20378;-79
2022/01/07 02:24:08;;;;;;;20.15;8.07;;;2.10;99.90;;;;;;5072354;28;20060;-80
2022/01/07 02:26:35;;;;;;;22.45;7.47;;;2.10;99.90;;;;;;5089309;28;20052;-83
2022/01/07 02:29:02;;;;;;;25.80;8.02;;;2.10;99.90;;;;;;5071155;28;20052;-80
2022/01/07 02:31:28;;;;;;;22.95;8.10;;;2.10;99.90;;;;;;5089682;28;20048;-80
2022/01/07 02:33:54;;;;;;;22.52;8.45;;;2.20;99.90;;;;;;5136546;27;20057;-80
2022/01/07 02:36:20;;;;;;;18.20;8.05;;;2.10;99.90;;;;;;5141963;27;20391;-80
2022/01/07 02:38:46;;;;;;;27.90;8.30;;;2.30;99.90;;;;;;5098587;27;20043;-79
2022/01/07 02:41:11;;;;;;;21.13;7.40;;;2.90;99.90;;;;;;5132986;27;20091;-80
2022/01/07 02:43:37;;;;;;;25.63;9.07;;;2.10;99.90;;;;;;5098113;27;20091;-82
2022/01/07 02:46:03;;;;;;;23.27;9.98;;;2.10;99.90;;;;;;5133311;27;20149;-80
2022/01/07 02:48:29;;;;;;;;;;;2.10;99.90;;;;;;5117012;27;20049;-80
2022/01/07 02:50:56;;;;;;;22.45;9.45;;;2.10;99.90;;;;;;5132812;27;19931;-80
2022/01/07 02:53:22;;;;;;;21.58;8.57;;;2.30;99.90;;;;;;5133348;27;20038;-80
2022/01/07 02:55:48;;;;;;;20.23;9.05;;;2.00;99.90;;;;;;5129582;27;20045;-80
2022/01/07 02:58:13;;;;;;;22.23;9.13;;;2.30;99.90;;;;;;5105653;28;20043;-81
2022/01/07 03:00:39;;;;;;;27.45;9.73;;;2.00;99.90;;;;;;5121517;27;20149;-83
2022/01/07 03:03:06;;;;;;;21.00;8.95;;;2.00;99.90;;;;;;5138537;27;20077;-80
2022/01/07 03:05:32;;;;;;;25.05;9.65;;;2.00;99.90;;;;;;5138349;27;20483;-80
2022/01/07 03:07:58;;;;;;;30.27;10.30;;;2.30;99.90;;;;;;5136785;27;20169;-80
2022/01/07 03:10:26;;;;;;;25.67;11.00;;;2.10;99.90;;;;;;5136430;27;20046;-81
2022/01/07 03:12:56;;;;;;;21.35;10.02;;;2.00;99.90;;;;;;5135860;27;20476;-80
2022/01/07 03:15:22;;;;;;;24.10;9.82;;;2.50;99.90;;;;;;5136024;27;20096;-80
2022/01/07 03:17:49;;;;;;;18.58;8.48;;;2.00;99.90;;;;;;5135907;27;20043;-81
2022/01/07 03:20:17;;;;;;;29.20;10.15;;;2.50;99.90;;;;;;5135329;27;20081;-80
2022/01/07 03:22:44;;;;;;;18.13;9.25;;;2.10;99.90;;;;;;5124768;27;20396;-81
2022/01/07 03:25:10;;;;;;;17.30;8.93;;;2.80;99.90;;;;;;5119424;27;20058;-80
2022/01/07 03:27:38;;;;;;;15.63;8.20;;;2.00;99.90;;;;;;5136792;27;20043;-80
2022/01/07 03:30:06;;;;;;;21.00;9.50;;;2.00;99.90;;;;;;5134554;27;20134;-80
2022/01/07 03:32:33;;;;;;;20.65;9.07;;;2.00;99.90;;;;;;5118541;27;20054;-80
2022/01/07 03:34:59;;;;;;;23.52;9.82;;;2.80;99.90;;;;;;5135725;27;20043;-80
2022/01/07 03:37:25;;;;;;;21.70;10.30;;;1.90;99.90;;;;;;5155081;27;20091;-80
2022/01/07 03:39:50;;;;;;;23.23;10.25;;;1.90;99.90;;;;;;5145274;27;20046;-81
2022/01/07 03:42:16;;;;;;;27.08;10.02;;;1.90;99.90;;;;;;5132542;27;20043;-80
2022/01/07 03:44:42;;;;;;;21.75;8.80;;;2.60;99.90;;;;;;5134877;27;20076;-84
2022/01/07 03:47:08;;;;;;;22.10;9.30;;;1.90;99.90;;;;;;5135598;27;20109;-79
2022/01/07 03:49:34;;;;;;;23.52;9.77;;;2.00;99.90;;;;;;5154720;27;20395;-80
2022/01/07 03:52:00;;;;;;;19.95;8.95;;;1.90;99.90;;;;;;5156227;27;20046;-81
2022/01/07 03:54:25;;;;;;;22.77;10.32;;;1.90;99.90;;;;;;5118283;27;20058;-80
2022/01/07 03:56:51;;;;;;;23.02;9.50;;;2.70;99.90;;;;;;5114955;27;20130;-80
2022/01/07 03:59:17;;;;;;;18.92;9.55;;;2.00;99.90;;;;;;5133434;27;20464;-79
2022/01/07 04:01:42;;;;;;;24.05;10.07;;;2.00;99.90;;;;;;5135620;27;20065;-83
2022/01/07 04:04:08;;;;;;;20.13;8.95;;;2.00;99.90;;;;;;5115179;27;20045;-80
2022/01/07 04:06:34;;;;;;;20.98;9.07;;;2.10;99.90;;;;;;5115539;27;20174;-81
2022/01/07 04:08:59;;;;;;;23.30;10.65;;;2.60;99.90;;;;;;5114330;27;20281;-80
2022/01/07 04:11:25;;;;;;;20.45;9.23;;;2.10;99.90;;;;;;5115179;27;20043;-80
2022/01/07 04:13:51;;;;;;;22.30;8.93;;;2.10;99.90;;;;;;5113440;27;20051;-80
2022/01/07 04:16:17;;;;;;;17.27;8.80;;;2.10;99.90;;;;;;5132408;27;20072;-80
2022/01/07 04:18:45;;;;;;;20.13;8.43;;;2.20;99.90;;;;;;5135741;27;20062;-80
2022/01/07 04:21:11;;;;;;;18.17;8.07;;;3.10;99.90;;;;;;5135623;27;20046;-80
2022/01/07 04:23:37;;;;;;;18.45;9.27;;;2.20;99.90;;;;;;5135090;27;20186;-81
2022/01/07 04:26:02;;;;;;;18.13;8.85;;;2.30;99.90;;;;;;5117742;27;20490;-80
2022/01/07 04:28:28;;;;;;;17.65;9.23;;;2.60;99.90;;;;;;5117493;27;20097;-83
2022/01/07 04:30:54;;;;;;;18.77;8.27;;;2.30;99.90;;;;;;5133668;27;20035;-80
2022/01/07 04:33:26;;;;;;;23.15;8.88;;;2.30;99.90;;;;;;5131581;27;20091;-81
2022/01/07 04:35:54;;;;;;;20.38;7.75;;;2.60;99.90;;;;;;5131212;27;20051;-80
2022/01/07 04:38:20;;;;;;;25.17;8.23;;;2.30;99.90;;;;;;5131943;27;20138;-80
2022/01/07 04:40:46;;;;;;;21.38;8.57;;;2.30;99.90;;;;;;5131396;27;20054;-83
2022/01/07 04:43:12;;;;;;;17.80;8.77;;;2.30;99.90;;;;;;5131382;27;20086;-81
2022/01/07 04:45:38;;;;;;;24.45;9.40;;;2.30;99.90;;;;;;5117618;27;20126;-80
2022/01/07 04:48:04;;;;;;;15.10;7.65;;;2.30;99.90;;;;;;5137782;27;20039;-80
2022/01/07 04:50:31;;;;;;;20.50;9.23;;;2.30;99.90;;;;;;5121870;27;20048;-81
2022/01/07 04:52:56;;;;;;;;;;;2.30;99.90;;;;;;5128465;27;20043;-80
2022/01/07 04:55:29;;;;;;;15.15;7.38;;;2.30;99.90;;;;;;5113102;27;20386;-81
2022/01/07 04:57:56;;;;;;;22.38;8.15;;;2.20;99.90;;;;;;5130273;27;20051;-81
2022/01/07 05:00:23;;;;;;;16.15;7.93;;;2.30;99.90;;;;;;5130520;27;20055;-81
2022/01/07 05:02:49;;;;;;;18.67;8.30;;;2.30;99.90;;;;;;5130626;27;20050;-83
2022/01/07 05:05:16;;;;;;;19.92;7.97;;;2.70;99.90;;;;;;5131220;27;20453;-81
2022/01/07 05:07:41;;;;;;;;;;;2.30;99.90;;;;;;5131920;27;20122;-81
2022/01/07 05:10:10;;;;;;;20.35;9.10;;;2.30;99.90;;;;;;5112858;27;20038;-81
2022/01/07 05:12:37;;;;;;;18.55;7.60;;;2.30;99.90;;;;;;5114127;27;20039;-80
2022/01/07 05:15:05;;;;;;;15.05;7.80;;;2.60;99.90;;;;;;5131384;27;20400;-81
2022/01/07 05:17:31;;;;;;;16.73;8.43;;;2.30;99.90;;;;;;5150920;27;20047;-81
2022/01/07 05:19:56;;;;;;;17.83;7.07;;;2.60;99.90;;;;;;5151241;27;20050;-80
2022/01/07 05:22:22;;;;;;;14.90;6.78;;;2.30;99.90;;;;;;5136842;27;20528;-80
2022/01/07 05:24:48;;;;;;;17.63;7.95;;;3.10;99.90;;;;;;5130815;27;20503;-80
2022/01/07 05:27:14;;;;;;;16.48;7.00;;;2.30;99.90;;;;;;5130386;27;20091;-80
2022/01/07 05:29:39;;;;;;;15.57;7.07;;;2.30;99.90;;;;;;5128881;27;20430;-80
2022/01/07 05:32:05;;;;;;;15.27;7.53;;;2.20;99.90;;;;;;5131112;27;20038;-81
2022/01/07 05:34:31;;;;;;;16.80;7.72;;;2.20;99.90;;;;;;5134432;27;20050;-81
2022/01/07 05:36:57;;;;;;;19.90;8.00;;;2.20;99.90;;;;;;5116728;27;20522;-81
2022/01/07 05:39:23;;;;;;;15.57;7.10;;;2.20;99.90;;;;;;5089553;27;20054;-80
2022/01/07 05:41:49;;;;;;;13.43;8.10;;;2.40;99.90;;;;;;5137784;27;20050;-81
2022/01/07 05:44:15;;;;;;;18.77;8.48;;;2.20;99.90;;;;;;5124841;27;20047;-80
2022/01/07 05:46:41;;;;;;;16.45;6.93;;;2.20;99.90;;;;;;5096434;27;20055;-81
2022/01/07 05:49:07;;;;;;;13.95;6.45;;;2.20;99.90;;;;;;5131833;27;20066;-81
2022/01/07 05:51:33;;;;;;;15.05;7.47;;;2.30;99.90;;;;;;5134021;27;20041;-80
2022/01/07 05:53:58;;;;;;;17.30;7.40;;;2.30;99.90;;;;;;5116003;27;20047;-81
2022/01/07 05:56:24;;;;;;;14.57;6.30;;;2.30;99.90;;;;;;5133725;27;20530;-81
2022/01/07 05:58:50;;;;;;;12.13;6.35;;;2.30;99.90;;;;;;5131947;27;20046;-81
2022/01/07 06:01:15;;;;;;;16.98;7.32;;;2.70;99.90;;;;;;5114347;27;20488;-81
2022/01/07 06:03:41;;;;;;;17.80;7.70;;;2.30;99.90;;;;;;5133929;27;20046;-82
2022/01/07 06:06:07;;;;;;;19.17;7.65;;;2.30;99.90;;;;;;5133421;27;20047;-81
2022/01/07 06:08:34;;;;;;;18.77;8.18;;;2.40;99.90;;;;;;5138859;27;20129;-81
2022/01/07 06:11:00;;;;;;;13.05;7.00;;;2.30;99.90;;;;;;5136637;27;20082;-81
2022/01/07 06:13:25;;;;;;;13.65;6.20;;;3.00;99.90;;;;;;5152909;27;20086;-81
2022/01/07 06:15:51;;;;;;;15.27;6.30;;;2.40;99.90;;;;;;5115831;27;20563;-81
2022/01/07 06:18:17;;;;;;;14.50;7.13;;;3.20;99.90;;;;;;5152091;27;20080;-81
2022/01/07 06:20:43;;;;;;;15.88;7.07;;;2.70;99.90;;;;;;5148550;27;20043;-80
2022/01/07 06:23:08;;;;;;;11.75;6.55;;;2.30;99.90;;;;;;5146687;27;20076;-80
2022/01/07 06:25:34;;;;;;;16.65;7.25;;;2.40;99.90;;;;;;5116702;27;20043;-81
2022/01/07 06:28:00;;;;;;;13.73;6.97;;;2.40;99.90;;;;;;5150116;27;20042;-81
2022/01/07 06:30:25;;;;;;;14.10;6.55;;;2.50;99.90;;;;;;5150489;27;20048;-80
2022/01/07 06:32:52;;;;;;;16.02;7.40;;;2.40;99.90;;;;;;5104326;28;20059;-81
2022/01/07 06:35:18;;;;;;;19.00;7.07;;;2.40;99.90;;;;;;5109437;28;20047;-81
2022/01/07 06:37:44;;;;;;;16.83;6.45;;;3.60;99.90;;;;;;5109740;28;20105;-82
2022/01/07 06:40:10;;;;;;;18.35;6.35;;;2.40;99.90;;;;;;5111121;28;20071;-80
2022/01/07 06:42:35;;;;;;;;;;;2.40;99.90;;;;;;5111782;28;20134;-80
2022/01/07 06:45:04;;;;;;;13.88;7.15;;;2.60;99.90;;;;;;5103684;27;20332;-80
2022/01/07 06:47:30;;;;;;;13.63;6.25;;;2.50;99.90;;;;;;5133110;27;20122;-80
2022/01/07 06:49:56;;;;;;;12.82;7.20;;;2.50;99.90;;;;;;5114570;27;20130;-81
2022/01/07 06:52:21;;;;;;;14.50;7.63;;;2.70;99.90;;;;;;5092690;28;20051;-80
2022/01/07 06:54:47;;;;;;;19.95;6.55;;;2.80;99.90;;;;;;5081539;28;20046;-81
2022/01/07 06:57:13;;;;;;;12.38;6.15;;;2.50;99.90;;;;;;5098349;28;20134;-80
2022/01/07 06:59:38;;;;;;;14.05;7.03;;;2.50;99.90;;;;;;5094824;28;20666;-80
2022/01/07 07:02:04;;;;;;;14.18;5.82;;;2.60;99.90;;;;;;5078336;28;20040;-80
2022/01/07 07:04:30;;;;;;;14.75;6.72;;;2.80;99.90;;;;;;5113016;28;20043;-80
2022/01/07 07:06:56;;;;;;;10.82;6.03;;;3.50;99.90;;;;;;5114281;27;20488;-81
2022/01/07 07:09:21;;;;;;;13.13;7.07;;;2.90;99.90;;;;;;5109458;27;20047;-81
2022/01/07 07:11:47;;;;;;;14.80;7.40;;;3.30;99.90;;;;;;5092552;28;20043;-81
2022/01/07 07:14:13;;;;;;;13.48;6.80;;;3.20;99.90;;;;;;5079159;27;20044;-81
2022/01/07 07:16:39;;;;;;;18.02;8.35;;;2.60;99.90;;;;;;5116273;27;20104;-81
2022/01/07 07:19:05;;;;;;;17.30;7.72;;;2.50;99.90;;;;;;5116037;27;20061;-82
2022/01/07 07:21:31;;;;;;;18.13;8.35;;;3.10;99.90;;;;;;5131823;27;20047;-81
2022/01/07 07:23:57;;;;;;;16.30;8.35;;;2.80;99.90;;;;;;5112027;28;20052;-80
2022/01/07 07:26:23;;;;;;;15.77;8.70;;;2.50;99.90;;;;;;5112466;28;20173;-80
2022/01/07 07:28:48;;;;;;;16.25;8.05;;;2.70;99.90;;;;;;5110884;28;20142;-80
2022/01/07 07:31:17;;;;;;;17.60;8.80;;;2.50;99.90;;;;;;5111565;28;20043;-81
2022/01/07 07:36:27;;;;;;;17.60;9.65;;;2.50;99.90;;;;;;5132537;27;20408;-82
2022/01/07 07:39:00;;;;;;;19.70;9.90;;;2.50;99.90;;;;;;5112550;28;20070;-81
2022/01/07 07:41:27;;;;;;;18.55;9.30;;;2.50;99.90;;;;;;5116179;27;20048;-81
2022/01/07 07:43:52;;;;;;;;;;;2.60;99.90;;;;;;5153099;27;20073;-81
2022/01/07 07:46:20;;;;;;;23.60;10.30;;;2.50;99.90;;;;;;5135646;27;19923;-81
2022/01/07 07:48:46;;;;;;;22.65;11.25;;;2.60;99.90;;;;;;5150028;27;20433;-83
2022/01/07 07:51:13;;;;;;;23.63;10.70;;;2.60;99.90;;;;;;5142232;27;20067;-79
2022/01/07 07:53:39;;;;;;;29.15;11.43;;;3.00;99.90;;;;;;5132106;27;20049;-78
2022/01/07 07:56:05;;;;;;;;;;;2.70;99.90;;;;;;5132443;27;20057;-82
2022/01/07 07:58:31;;;;;;;23.80;10.25;;;2.70;99.90;;;;;;5130957;27;19923;-78
2022/01/07 08:00:57;;;;;;;23.27;11.45;;;2.70;99.90;;;;;;5114791;27;20050;-80
2022/01/07 08:03:24;;;;;;;21.85;11.95;;;2.70;99.90;;;;;;5115018;27;20050;-81
2022/01/07 08:05:50;;;;;;;23.17;11.38;;;2.70;99.90;;;;;;5132609;27;20476;-81
2022/01/07 08:08:16;;;;;;;26.08;13.20;;;2.70;99.90;;;;;;5133162;27;20051;-80
2022/01/07 08:10:48;;;;;;;30.73;12.52;;;2.80;99.90;;;;;;5144262;27;20129;-81
2022/01/07 08:15:59;;;;;;;26.25;13.00;;;2.80;99.90;;;;;;5131346;27;20099;-80
2022/01/07 08:18:30;;;;;;;25.63;12.30;;;3.40;99.90;;;;;;5131889;27;20047;-80
2022/01/07 08:21:01;;;;;;;24.95;13.32;;;2.80;99.90;;;;;;5132445;27;20050;-80
2022/01/07 08:23:27;;;;;;;29.27;14.73;;;2.90;99.90;;;;;;5134585;27;20055;-82
2022/01/07 08:25:53;;;;;;;;;;;2.90;99.90;;;;;;5133300;27;20050;-81
2022/01/07 08:28:19;;;;;;;25.40;12.48;;;3.60;99.90;;;;;;5132056;27;19919;-81
2022/01/07 08:36:18;;;;;;;29.27;13.25;;;3.00;99.90;;;;;;5110992;28;20549;-82
2022/01/07 08:38:44;;;;;;;28.77;13.93;;;3.00;99.90;;;;;;5111118;27;20054;-81
2022/01/07 08:41:10;;;;;;;;;;;3.10;99.90;;;;;;5131864;27;20046;-82
2022/01/07 08:43:37;;;;;;;31.67;14.77;;;3.10;99.90;;;;;;5129968;27;19920;-82
2022/01/07 08:46:07;;;;;;;33.78;15.15;;;3.60;99.90;;;;;;5114599;27;20051;-82
2022/01/07 08:48:34;;;;;;;32.38;14.73;;;3.20;99.90;;;;;;5136429;27;20039;-82
2022/01/07 08:50:59;;;;;;;32.70;13.88;;;3.30;99.90;;;;;;5094202;28;20054;-81
2022/01/07 08:53:25;;;;;;;27.92;14.05;;;3.20;99.90;;;;;;5110591;28;20134;-82
2022/01/07 08:55:51;;;;;;;32.88;14.57;;;3.30;99.90;;;;;;5093927;28;20071;-82
2022/01/07 08:58:17;;;;;;;32.50;14.32;;;3.40;99.90;;;;;;5096589;27;20535;-82
2022/01/07 09:00:43;;;;;;;;;;;3.50;99.90;;;;;;5126160;27;20050;-82
2022/01/07 09:03:08;;;;;;;30.10;15.15;;;3.40;99.90;;;;;;5126842;27;19923;-82
2022/01/07 09:05:34;;;;;;;36.58;14.30;;;3.50;99.90;;;;;;5112031;27;20130;-81
2022/01/07 09:08:00;;;;;;;30.92;14.07;;;3.60;99.90;;;;;;5130012;27;20189;-81
2022/01/07 09:10:26;;;;;;;31.77;14.20;;;3.60;99.90;;;;;;5113125;27;20450;-81
2022/01/07 09:12:52;;;;;;;32.50;14.85;;;3.60;99.90;;;;;;5113835;27;20040;-81
2022/01/07 09:15:18;;;;;;;33.00;15.00;;;3.70;99.90;;;;;;5107994;28;20043;-82
2022/01/07 09:17:44;;;;;;;29.40;14.77;;;3.70;99.90;;;;;;5094797;27;20052;-81
2022/01/07 09:20:11;;;;;;;29.63;14.07;;;3.80;99.90;;;;;;5112923;27;20044;-80
2022/01/07 09:22:37;;;;;;;30.38;13.75;;;3.90;99.90;;;;;;5113104;27;20035;-80
2022/01/07 09:25:05;;;;;;;30.85;14.95;;;3.90;99.90;;;;;;5127023;27;20054;-80
2022/01/07 09:27:31;;;;;;;27.38;13.15;;;4.00;99.90;;;;;;5128979;27;20103;-81
2022/01/07 09:29:57;;;;;;;28.77;13.65;;;4.00;99.90;;;;;;5109461;27;20047;-80
2022/01/07 09:32:23;;;;;;;35.78;15.65;;;4.70;99.90;;;;;;5114051;27;20054;-81
2022/01/07 09:34:50;;;;;;;35.20;15.13;;;4.10;99.90;;;;;;5139606;27;20070;-81
2022/01/07 09:37:16;;;;;;;30.23;14.75;;;4.10;99.90;;;;;;5167963;27;20054;-81
2022/01/07 09:39:42;;;;;;;30.63;15.02;;;4.20;99.90;;;;;;5154015;27;20098;-81
2022/01/07 09:42:08;;;;;;;27.83;12.82;;;4.20;99.90;;;;;;5145225;27;20058;-81
2022/01/07 09:44:42;;;;;;;28.70;13.60;;;4.30;99.90;;;;;;5148773;27;20103;-81
2022/01/07 09:47:12;;;;;;;29.83;15.02;;;4.30;99.90;;;;;;5136928;27;20062;-81
2022/01/07 09:49:39;;;;;;;28.50;12.95;;;4.30;99.90;;;;;;5154096;27;20756;-81
2022/01/07 09:52:06;;;;;;;31.88;14.10;;;4.40;99.90;;;;;;5138848;27;20047;-80
2022/01/07 09:54:37;;;;;;;31.50;13.85;;;4.40;99.90;;;;;;5132934;27;20073;-80
2022/01/07 09:57:06;;;;;;;30.25;12.90;;;4.30;99.90;;;;;;5132869;27;20108;-80
2022/01/07 09:59:33;;;;;;;28.83;12.88;;;4.50;99.90;;;;;;5113709;27;20053;-81
2022/01/07 10:02:00;;;;;;;30.05;13.77;;;4.50;99.90;;;;;;5114595;27;20552;-81
2022/01/07 10:04:36;;;;;;;25.05;13.98;;;4.50;99.90;;;;;;5111753;27;20050;-80
2022/01/07 10:07:25;;;;;;;27.58;14.15;;;4.50;99.90;;;;;;5097910;27;20062;-81
2022/01/07 10:10:11;;;;;;;30.95;14.45;;;4.50;99.90;;;;;;5115263;27;20058;-81
2022/01/07 10:12:55;;;;;;;28.05;14.02;;;4.40;99.90;;;;;;5131308;27;20038;-82
2022/01/07 10:15:29;;;;;;;26.23;13.00;;;4.50;99.90;;;;;;5118182;27;20055;-80
2022/01/07 10:18:07;;;;;;;29.83;13.23;;;4.40;99.90;;;;;;5118190;27;20047;-79
2022/01/07 10:20:38;;;;;;;31.58;14.15;;;4.40;99.90;;;;;;5122798;27;20051;-79
2022/01/07 10:23:08;;;;;;;29.20;13.52;;;4.40;99.90;;;;;;5126364;27;20047;-80
2022/01/07 10:25:37;;;;;;;26.20;12.75;;;4.40;99.90;;;;;;5118994;27;20499;-79
2022/01/07 10:28:15;;;;;;;25.63;13.50;;;4.40;99.90;;;;;;5118161;27;20084;-79
2022/01/07 10:30:54;;;;;;;31.77;13.85;;;4.30;99.90;;;;;;5114736;27;20073;-80
2022/01/07 10:33:30;;;;;;;23.25;11.43;;;4.30;99.90;;;;;;5135317;27;20066;-80
2022/01/07 10:36:06;;;;;;;13.98;5.82;;;4.30;99.90;;;;;;5099949;27;20050;-86
2022/01/07 10:38:34;;;;;;;19.23;7.40;;;4.30;99.90;;;;;;5110728;27;20066;-83
2022/01/07 10:41:00;;;;;;;10.32;5.57;;;4.10;99.90;;;;;;5121835;27;20112;-83
2022/01/07 10:43:32;;;;;;;5.53;2.83;;;3.90;99.90;;;;;;5112601;27;20456;-82
2022/01/07 10:46:00;;;;;;;5.55;1.50;;;3.80;99.90;;;;;;5114991;27;20089;-82
2022/01/07 10:48:43;;;;;;;2.72;1.50;;;3.70;99.90;;;;;;5117873;27;20051;-82
2022/01/07 10:51:15;;;;;;;4.20;1.65;;;4.00;99.90;;;;;;5116569;27;20134;-83
2022/01/07 10:53:46;;;;;;;2.55;1.70;;;3.70;99.90;;;;;;5111682;27;20050;-83
2022/01/07 10:56:14;;;;;;;7.32;2.45;;;4.00;99.90;;;;;;5133854;27;20126;-83
2022/01/07 10:58:42;;;;;;;5.38;2.75;;;3.80;99.90;;;;;;5115945;27;20043;-82
2022/01/07 11:01:25;;;;;;;10.63;3.88;;;3.90;99.90;;;;;;5112724;27;20043;-82
2022/01/07 11:03:53;;;;;;;13.85;5.30;;;3.90;99.90;;;;;;5133102;27;20129;-82
2022/01/07 11:06:20;;;;;;;12.95;5.43;;;3.80;99.90;;;;;;5131459;27;20280;-82
2022/01/07 11:08:51;;;;;;;14.07;6.28;;;4.20;99.90;;;;;;5114303;27;20035;-82
2022/01/07 11:11:19;;;;;;;15.15;7.70;;;3.80;99.90;;;;;;5131054;27;20711;-81
2022/01/07 11:13:45;;;;;;;19.63;8.75;;;3.90;99.90;;;;;;5127375;27;20043;-81
2022/01/07 11:16:11;;;;;;;25.40;10.07;;;4.10;99.90;;;;;;5129156;27;20070;-81
2022/01/07 11:18:38;;;;;;;;;;;4.00;99.90;;;;;;5123844;27;20047;-81
2022/01/07 11:21:05;;;;;;;25.63;12.02;;;4.00;99.90;;;;;;5134558;27;20451;-81
2022/01/07 11:23:32;;;;;;;28.10;11.90;;;4.10;99.90;;;;;;5116772;27;20039;-83
2022/01/07 11:26:03;;;;;;;27.60;13.38;;;4.20;99.90;;;;;;5113603;27;20051;-79
2022/01/07 11:28:30;;;;;;;40.25;16.58;;;4.40;99.90;;;;;;5122866;27;20043;-83
2022/01/07 11:31:12;;;;;;;46.35;19.02;;;4.20;99.90;;;;;;5115740;27;20039;-82
2022/01/07 11:33:37;;;;;;;45.15;18.60;;;4.40;99.90;;;;;;5130005;27;20092;-81
2022/01/07 11:36:04;;;;;;;39.70;17.58;;;4.90;99.90;;;;;;5115225;27;20043;-81
2022/01/07 11:38:39;;;;;;;29.45;14.20;;;5.00;99.90;;;;;;5114656;27;20126;-81
2022/01/07 11:41:09;;;;;;;26.38;12.38;;;5.20;99.90;;;;;;5114844;27;20088;-81
2022/01/07 11:43:46;;;;;;;27.80;12.10;;;5.30;99.90;;;;;;5128586;27;20079;-81
2022/01/07 11:46:27;;;;;;;20.83;11.48;;;5.20;99.90;;;;;;5107462;27;20051;-81
2022/01/07 11:48:54;;;;;;;23.45;11.65;;;5.10;99.90;;;;;;5131595;27;20699;-81
2022/01/07 11:51:21;;;;;;;26.20;11.55;;;5.00;99.90;;;;;;5114667;27;20500;-80
2022/01/07 11:53:50;;;;;;;24.42;10.35;;;5.00;99.90;;;;;;5111288;27;20047;-81
2022/01/07 11:56:16;;;;;;;19.52;11.23;;;4.90;99.90;;;;;;5111291;28;20123;-80
2022/01/07 11:58:45;;;;;;;18.77;9.60;;;4.90;99.90;;;;;;5109489;28;20054;-82
2022/01/07 12:01:31;;;;;;;18.30;8.13;;;5.00;99.90;;;;;;5116302;27;20054;-82
2022/01/07 12:04:23;;;;;;;12.23;3.50;;;4.90;99.90;;;;;;5110797;28;20539;-82
2022/01/07 12:06:50;;;;;;;8.30;2.10;;;4.70;99.90;;;;;;5121592;27;20046;-83
2022/01/07 12:09:21;;;;;;;5.25;1.65;;;4.40;99.90;;;;;;5098396;27;20064;-82
2022/01/07 12:12:32;;;;;;;4.47;1.70;;;4.10;99.90;;;;;;5110709;27;20036;-82
2022/01/07 12:15:02;;;;;;;6.25;1.50;;;4.30;99.90;;;;;;5024264;28;20082;-83
2022/01/07 12:17:31;;;;;;;10.18;1.35;;;3.80;99.90;;;;;;5113835;27;20059;-82
2022/01/07 12:20:25;;;;;;;8.75;1.50;;;3.80;99.90;;;;;;5096724;28;20051;-82
2022/01/07 12:22:53;;;;;;;6.43;1.25;;;3.70;99.90;;;;;;5115855;27;20047;-82
2022/01/07 12:25:19;;;;;;;6.85;2.17;;;3.80;99.90;;;;;;5112419;27;20047;-82
2022/01/07 12:27:45;;;;;;;7.30;1.48;;;3.90;99.90;;;;;;5096986;27;20054;-82
2022/01/07 12:30:13;;;;;;;5.50;1.23;;;3.60;99.90;;;;;;5130038;27;20039;-82
2022/01/07 12:32:39;;;;;;;7.85;1.23;;;3.50;99.90;;;;;;5115317;27;20614;-83
2022/01/07 12:35:08;;;;;;;3.17;1.10;;;4.20;99.90;;;;;;5117404;27;20038;-82
2022/01/07 12:37:34;;;;;;;6.07;1.15;;;3.40;99.90;;;;;;5111551;27;20063;-82
2022/01/07 12:40:04;;;;;;;4.22;1.13;;;3.30;99.90;;;;;;5142942;27;20038;-80
2022/01/07 12:42:35;;;;;;;4.82;1.02;;;3.70;99.90;;;;;;5113752;27;20054;-81
2022/01/07 12:45:01;;;;;;;5.53;1.23;;;3.30;99.90;;;;;;5128321;27;20042;-86
2022/01/07 12:47:30;;;;;;;2.25;1.55;;;3.30;99.90;;;;;;5097674;27;20043;-86
2022/01/07 12:49:58;;;;;;;4.53;1.10;;;3.80;99.90;;;;;;5108950;27;20043;-88
2022/01/07 12:52:37;;;;;;;3.55;1.40;;;3.70;99.90;;;;;;5097787;27;20506;-87
2022/01/07 12:55:20;;;;;;;4.72;1.30;;;3.30;99.90;;;;;;5113312;27;20142;-88
2022/01/07 12:57:47;;;;;;;4.07;1.42;;;3.30;99.90;;;;;;5119036;27;20075;-85
2022/01/07 13:00:15;;;;;;;6.70;1.58;;;3.20;99.90;;;;;;5120676;27;20049;-87